sensor_id;sensor_type;location;lat;lon;timestamp;temperature;humidity
5588;DHT22;2816;49.778;9.986;2023-06-10T00:00:27;18.00;99.90
5588;DHT22;2816;49.778;9.986;2023-06-10T00:02:55;18.00;99.90
5588;DHT22;2816;49.778;9.986;2023-06-10T00:05:22;18.00;99.90
5588;DHT22;2816;49.778;9.986;2023-06-10T00:07:49;18.00;99.90
5588;DHT22;2816;49.778;9.986;2023-06-10T00:10:16;18.00;99.90
5588;DHT22;2816;49.778;9.986;2023-06-10T00:12:43;18.00;99.90
5588;DHT22;2816;49.778;9.986;2023-06-10T00:15:10;18.00;99.90
5588;DHT22;2816;49.778;9.986;2023-06-10T00:17:37;18.10;99.90
5588;DHT22;2816;49.778;9.986;2023-06-10T00:20:07;18.10;99.90
5588;DHT22;2816;49.778;9.986;2023-06-10T00:22:36;18.00;99.90
5588;DHT22;2816;49.778;9.986;2023-06-10T00:25:05;17.90;99.90
5588;DHT22;2816;49.778;9.986;2023-06-10T00:27:32;18.00;99.90
5588;DHT22;2816;49.778;9.986;2023-06-10T00:30:01;18.00;99.90
5588;DHT22;2816;49.778;9.986;2023-06-10T00:32:30;17.90;99.90
5588;DHT22;2816;49.778;9.986;2023-06-10T00:34:56;17.90;99.90
5588;DHT22;2816;49.778;9.986;2023-06-10T00:37:25;17.80;99.90
5588;DHT22;2816;49.778;9.986;2023-06-10T00:39:52;17.80;99.90
5588;DHT22;2816;49.778;9.986;2023-06-10T00:42:19;17.80;99.90
5588;DHT22;2816;49.778;9.986;2023-06-10T00:44:46;17.80;99.90
5588;DHT22;2816;49.778;9.986;2023-06-10T00:47:13;17.70;99.90
5588;DHT22;2816;49.778;9.986;2023-06-10T00:49:41;17.70;99.90
5588;DHT22;2816;49.778;9.986;2023-06-10T00:52:08;17.70;99.90
5588;DHT22;2816;49.778;9.986;2023-06-10T00:54:37;17.60;99.90
5588;DHT22;2816;49.778;9.986;2023-06-10T00:57:05;17.60;99.90
5588;DHT22;2816;49.778;9.986;2023-06-10T00:59:32;17.60;99.90
5588;DHT22;2816;49.778;9.986;2023-06-10T01:01:59;17.60;99.90
5588;DHT22;2816;49.778;9.986;2023-06-10T01:04:28;17.60;99.90
5588;DHT22;2816;49.778;9.986;2023-06-10T01:07:00;17.50;99.90
5588;DHT22;2816;49.778;9.986;2023-06-10T01:12:22;17.40;99.90
5588;DHT22;2816;49.778;9.986;2023-06-10T01:14:51;17.40;99.90
5588;DHT22;2816;49.778;9.986;2023-06-10T01:17:18;17.40;99.90
5588;DHT22;2816;49.778;9.986;2023-06-10T01:19:53;17.30;99.90
5588;DHT22;2816;49.778;9.986;2023-06-10T01:22:23;17.30;99.90
5588;DHT22;2816;49.778;9.986;2023-06-10T01:24:52;17.40;99.90
5588;DHT22;2816;49.778;9.986;2023-06-10T01:27:21;17.40;99.90
5588;DHT22;2816;49.778;9.986;2023-06-10T01:29:54;17.40;99.90
5588;DHT22;2816;49.778;9.986;2023-06-10T01:32:34;17.40;99.90
5588;DHT22;2816;49.778;9.986;2023-06-10T01:35:06;17.30;99.90
5588;DHT22;2816;49.778;9.986;2023-06-10T01:37:36;17.30;99.90
5588;DHT22;2816;49.778;9.986;2023-06-10T01:40:06;17.30;99.90
5588;DHT22;2816;49.778;9.986;2023-06-10T01:42:33;17.30;99.90
5588;DHT22;2816;49.778;9.986;2023-06-10T01:45:00;17.20;99.90
5588;DHT22;2816;49.778;9.986;2023-06-10T01:47:28;17.20;99.90
5588;DHT22;2816;49.778;9.986;2023-06-10T01:49:54;17.20;99.90
5588;DHT22;2816;49.778;9.986;2023-06-10T01:52:21;17.10;99.90
5588;DHT22;2816;49.778;9.986;2023-06-10T01:54:50;17.10;99.90
5588;DHT22;2816;49.778;9.986;2023-06-10T01:57:17;17.00;99.90
5588;DHT22;2816;49.778;9.986;2023-06-10T01:59:44;17.10;99.90
5588;DHT22;2816;49.778;9.986;2023-06-10T02:02:11;17.00;99.90
5588;DHT22;2816;49.778;9.986;2023-06-10T02:04:38;17.00;99.90
5588;DHT22;2816;49.778;9.986;2023-06-10T02:07:05;16.90;99.90
5588;DHT22;2816;49.778;9.986;2023-06-10T02:09:32;16.90;99.90
5588;DHT22;2816;49.778;9.986;2023-06-10T02:12:02;16.90;99.90
5588;DHT22;2816;49.778;9.986;2023-06-10T02:14:32;16.90;99.90
5588;DHT22;2816;49.778;9.986;2023-06-10T02:16:59;16.80;99.90
5588;DHT22;2816;49.778;9.986;2023-06-10T02:19:27;16.80;99.90
5588;DHT22;2816;49.778;9.986;2023-06-10T02:21:54;16.80;99.90
5588;DHT22;2816;49.778;9.986;2023-06-10T02:24:21;16.80;99.90
5588;DHT22;2816;49.778;9.986;2023-06-10T02:26:48;16.80;99.90
5588;DHT22;2816;49.778;9.986;2023-06-10T02:29:18;16.80;99.90
5588;DHT22;2816;49.778;9.986;2023-06-10T02:31:45;16.70;99.90
5588;DHT22;2816;49.778;9.986;2023-06-10T02:34:12;16.70;99.90
5588;DHT22;2816;49.778;9.986;2023-06-10T02:36:41;16.70;99.90
5588;DHT22;2816;49.778;9.986;2023-06-10T02:39:08;16.60;99.90
5588;DHT22;2816;49.778;9.986;2023-06-10T02:41:35;16.60;99.90
5588;DHT22;2816;49.778;9.986;2023-06-10T02:44:01;16.60;99.90
5588;DHT22;2816;49.778;9.986;2023-06-10T02:46:30;16.50;99.90
5588;DHT22;2816;49.778;9.986;2023-06-10T02:48:57;16.50;99.90
5588;DHT22;2816;49.778;9.986;2023-06-10T02:51:24;16.50;99.90
5588;DHT22;2816;49.778;9.986;2023-06-10T02:53:51;16.50;99.90
5588;DHT22;2816;49.778;9.986;2023-06-10T02:56:19;16.40;99.90
5588;DHT22;2816;49.778;9.986;2023-06-10T02:58:46;16.40;99.90
5588;DHT22;2816;49.778;9.986;2023-06-10T03:01:13;16.30;99.90
5588;DHT22;2816;49.778;9.986;2023-06-10T03:03:42;16.30;99.90
5588;DHT22;2816;49.778;9.986;2023-06-10T03:06:10;16.30;99.90
5588;DHT22;2816;49.778;9.986;2023-06-10T03:08:38;16.20;99.90
5588;DHT22;2816;49.778;9.986;2023-06-10T03:11:05;16.30;99.90
5588;DHT22;2816;49.778;9.986;2023-06-10T03:13:32;16.30;99.90
5588;DHT22;2816;49.778;9.986;2023-06-10T03:15:59;16.30;99.90
5588;DHT22;2816;49.778;9.986;2023-06-10T03:18:27;16.30;99.90
5588;DHT22;2816;49.778;9.986;2023-06-10T03:20:55;16.40;99.90
5588;DHT22;2816;49.778;9.986;2023-06-10T03:23:23;16.40;99.90
5588;DHT22;2816;49.778;9.986;2023-06-10T03:25:50;16.40;99.90
5588;DHT22;2816;49.778;9.986;2023-06-10T03:28:17;16.40;99.90
5588;DHT22;2816;49.778;9.986;2023-06-10T03:30:44;16.40;99.90
5588;DHT22;2816;49.778;9.986;2023-06-10T03:33:11;16.30;99.90
5588;DHT22;2816;49.778;9.986;2023-06-10T03:35:38;16.30;99.90
5588;DHT22;2816;49.778;9.986;2023-06-10T03:38:06;16.30;99.90
5588;DHT22;2816;49.778;9.986;2023-06-10T03:40:33;16.30;99.90
5588;DHT22;2816;49.778;9.986;2023-06-10T03:43:01;16.30;99.90
5588;DHT22;2816;49.778;9.986;2023-06-10T03:45:28;16.20;99.90
5588;DHT22;2816;49.778;9.986;2023-06-10T03:47:56;16.30;99.90
5588;DHT22;2816;49.778;9.986;2023-06-10T03:50:23;16.30;99.90
5588;DHT22;2816;49.778;9.986;2023-06-10T03:52:50;16.20;99.90
5588;DHT22;2816;49.778;9.986;2023-06-10T03:55:19;16.10;99.90
5588;DHT22;2816;49.778;9.986;2023-06-10T03:57:47;16.10;99.90
5588;DHT22;2816;49.778;9.986;2023-06-10T04:00:15;16.10;99.90
5588;DHT22;2816;49.778;9.986;2023-06-10T04:02:43;16.10;99.90
5588;DHT22;2816;49.778;9.986;2023-06-10T04:05:14;16.10;99.90
5588;DHT22;2816;49.778;9.986;2023-06-10T04:07:41;16.10;99.90
5588;DHT22;2816;49.778;9.986;2023-06-10T04:10:09;16.00;99.90
5588;DHT22;2816;49.778;9.986;2023-06-10T04:12:38;16.10;99.90
5588;DHT22;2816;49.778;9.986;2023-06-10T04:15:06;16.10;99.90
5588;DHT22;2816;49.778;9.986;2023-06-10T04:17:33;16.10;99.90
5588;DHT22;2816;49.778;9.986;2023-06-10T04:20:00;16.20;99.90
5588;DHT22;2816;49.778;9.986;2023-06-10T04:22:28;16.20;99.90
5588;DHT22;2816;49.778;9.986;2023-06-10T04:24:55;16.10;99.90
5588;DHT22;2816;49.778;9.986;2023-06-10T04:27:22;16.20;99.90
5588;DHT22;2816;49.778;9.986;2023-06-10T04:29:50;16.30;99.90
5588;DHT22;2816;49.778;9.986;2023-06-10T04:32:18;16.30;99.90
5588;DHT22;2816;49.778;9.986;2023-06-10T04:34:45;16.30;99.90
5588;DHT22;2816;49.778;9.986;2023-06-10T04:37:11;16.30;99.90
5588;DHT22;2816;49.778;9.986;2023-06-10T04:39:38;16.40;99.90
5588;DHT22;2816;49.778;9.986;2023-06-10T04:42:07;16.40;99.90
5588;DHT22;2816;49.778;9.986;2023-06-10T04:44:34;16.50;99.90
5588;DHT22;2816;49.778;9.986;2023-06-10T04:47:02;16.50;99.90
5588;DHT22;2816;49.778;9.986;2023-06-10T04:49:29;16.50;99.90
5588;DHT22;2816;49.778;9.986;2023-06-10T04:51:57;16.50;99.90
5588;DHT22;2816;49.778;9.986;2023-06-10T04:54:25;16.60;99.90
5588;DHT22;2816;49.778;9.986;2023-06-10T04:56:52;16.60;99.90
5588;DHT22;2816;49.778;9.986;2023-06-10T04:59:20;16.60;99.90
5588;DHT22;2816;49.778;9.986;2023-06-10T05:01:46;16.60;99.90
5588;DHT22;2816;49.778;9.986;2023-06-10T05:04:15;16.70;99.90
5588;DHT22;2816;49.778;9.986;2023-06-10T05:06:42;16.70;99.90
5588;DHT22;2816;49.778;9.986;2023-06-10T05:09:09;16.70;99.90
5588;DHT22;2816;49.778;9.986;2023-06-10T05:11:36;16.70;99.90
5588;DHT22;2816;49.778;9.986;2023-06-10T05:14:03;16.80;99.90
5588;DHT22;2816;49.778;9.986;2023-06-10T05:16:30;16.80;99.90
5588;DHT22;2816;49.778;9.986;2023-06-10T05:18:57;16.80;99.90
5588;DHT22;2816;49.778;9.986;2023-06-10T05:21:25;16.80;99.90
5588;DHT22;2816;49.778;9.986;2023-06-10T05:23:52;16.90;99.90
5588;DHT22;2816;49.778;9.986;2023-06-10T05:26:20;16.90;99.90
5588;DHT22;2816;49.778;9.986;2023-06-10T05:28:47;16.90;99.90
5588;DHT22;2816;49.778;9.986;2023-06-10T05:31:14;16.90;99.90
5588;DHT22;2816;49.778;9.986;2023-06-10T05:33:41;16.90;99.90
5588;DHT22;2816;49.778;9.986;2023-06-10T05:36:08;17.10;99.90
5588;DHT22;2816;49.778;9.986;2023-06-10T05:38:36;17.00;99.90
5588;DHT22;2816;49.778;9.986;2023-06-10T05:41:03;17.20;99.90
5588;DHT22;2816;49.778;9.986;2023-06-10T05:43:30;17.20;99.90
5588;DHT22;2816;49.778;9.986;2023-06-10T05:45:57;17.20;99.90
5588;DHT22;2816;49.778;9.986;2023-06-10T05:48:23;17.30;99.90
5588;DHT22;2816;49.778;9.986;2023-06-10T05:50:50;17.40;99.90
5588;DHT22;2816;49.778;9.986;2023-06-10T05:53:17;17.40;99.90
5588;DHT22;2816;49.778;9.986;2023-06-10T05:55:46;17.50;99.90
5588;DHT22;2816;49.778;9.986;2023-06-10T05:58:14;17.60;99.90
5588;DHT22;2816;49.778;9.986;2023-06-10T06:00:41;17.60;99.90
5588;DHT22;2816;49.778;9.986;2023-06-10T06:03:08;17.70;99.90
5588;DHT22;2816;49.778;9.986;2023-06-10T06:05:36;17.70;99.90
5588;DHT22;2816;49.778;9.986;2023-06-10T06:08:04;17.80;99.90
5588;DHT22;2816;49.778;9.986;2023-06-10T06:10:31;17.80;99.90
5588;DHT22;2816;49.778;9.986;2023-06-10T06:13:00;18.00;99.90
5588;DHT22;2816;49.778;9.986;2023-06-10T06:15:28;18.10;99.90
5588;DHT22;2816;49.778;9.986;2023-06-10T06:17:54;18.20;99.90
5588;DHT22;2816;49.778;9.986;2023-06-10T06:20:22;18.40;99.90
5588;DHT22;2816;49.778;9.986;2023-06-10T06:22:49;18.40;99.90
5588;DHT22;2816;49.778;9.986;2023-06-10T06:25:16;18.60;99.90
5588;DHT22;2816;49.778;9.986;2023-06-10T06:27:43;18.70;99.90
5588;DHT22;2816;49.778;9.986;2023-06-10T06:30:12;18.80;99.90
5588;DHT22;2816;49.778;9.986;2023-06-10T06:32:39;18.80;99.90
5588;DHT22;2816;49.778;9.986;2023-06-10T06:35:07;18.90;99.90
5588;DHT22;2816;49.778;9.986;2023-06-10T06:37:34;18.90;99.90
5588;DHT22;2816;49.778;9.986;2023-06-10T06:40:01;19.00;99.90
5588;DHT22;2816;49.778;9.986;2023-06-10T06:42:29;19.00;99.90
5588;DHT22;2816;49.778;9.986;2023-06-10T06:44:56;19.10;99.90
5588;DHT22;2816;49.778;9.986;2023-06-10T06:47:24;19.20;99.90
5588;DHT22;2816;49.778;9.986;2023-06-10T06:49:52;19.30;99.90
5588;DHT22;2816;49.778;9.986;2023-06-10T06:52:19;19.50;99.90
5588;DHT22;2816;49.778;9.986;2023-06-10T06:54:45;19.50;99.90
5588;DHT22;2816;49.778;9.986;2023-06-10T06:57:12;19.50;99.90
5588;DHT22;2816;49.778;9.986;2023-06-10T06:59:39;19.50;99.90
5588;DHT22;2816;49.778;9.986;2023-06-10T07:02:06;19.80;99.90
5588;DHT22;2816;49.778;9.986;2023-06-10T07:04:35;19.90;99.90
5588;DHT22;2816;49.778;9.986;2023-06-10T07:07:02;20.00;99.90
5588;DHT22;2816;49.778;9.986;2023-06-10T07:09:29;20.10;99.90
5588;DHT22;2816;49.778;9.986;2023-06-10T07:11:56;20.20;99.90
5588;DHT22;2816;49.778;9.986;2023-06-10T07:14:22;20.30;99.90
5588;DHT22;2816;49.778;9.986;2023-06-10T07:16:49;20.30;99.90
5588;DHT22;2816;49.778;9.986;2023-06-10T07:19:16;20.50;99.90
5588;DHT22;2816;49.778;9.986;2023-06-10T07:21:45;20.60;99.90
5588;DHT22;2816;49.778;9.986;2023-06-10T07:24:11;20.50;99.90
5588;DHT22;2816;49.778;9.986;2023-06-10T07:26:38;20.60;99.90
5588;DHT22;2816;49.778;9.986;2023-06-10T07:29:05;20.80;99.90
5588;DHT22;2816;49.778;9.986;2023-06-10T07:31:32;21.00;99.90
5588;DHT22;2816;49.778;9.986;2023-06-10T07:33:59;20.90;99.90
5588;DHT22;2816;49.778;9.986;2023-06-10T07:36:26;21.00;99.90
5588;DHT22;2816;49.778;9.986;2023-06-10T07:38:56;21.10;99.90
5588;DHT22;2816;49.778;9.986;2023-06-10T07:41:23;21.20;99.90
5588;DHT22;2816;49.778;9.986;2023-06-10T07:43:51;21.10;99.90
5588;DHT22;2816;49.778;9.986;2023-06-10T07:46:20;21.20;99.90
5588;DHT22;2816;49.778;9.986;2023-06-10T07:48:47;21.30;99.90
5588;DHT22;2816;49.778;9.986;2023-06-10T07:51:15;21.50;99.90
5588;DHT22;2816;49.778;9.986;2023-06-10T07:53:42;21.50;99.90
5588;DHT22;2816;49.778;9.986;2023-06-10T07:56:11;21.60;99.90
5588;DHT22;2816;49.778;9.986;2023-06-10T07:58:37;21.70;99.90
5588;DHT22;2816;49.778;9.986;2023-06-10T08:01:04;21.90;99.90
5588;DHT22;2816;49.778;9.986;2023-06-10T08:03:32;22.10;99.90
5588;DHT22;2816;49.778;9.986;2023-06-10T08:05:59;22.20;99.90
5588;DHT22;2816;49.778;9.986;2023-06-10T08:08:26;22.30;99.90
5588;DHT22;2816;49.778;9.986;2023-06-10T08:10:53;22.30;99.90
5588;DHT22;2816;49.778;9.986;2023-06-10T08:13:21;22.20;99.90
5588;DHT22;2816;49.778;9.986;2023-06-10T08:15:48;22.30;99.90
5588;DHT22;2816;49.778;9.986;2023-06-10T08:18:16;22.40;99.90
5588;DHT22;2816;49.778;9.986;2023-06-10T08:20:43;22.50;99.90
5588;DHT22;2816;49.778;9.986;2023-06-10T08:23:10;22.50;99.90
5588;DHT22;2816;49.778;9.986;2023-06-10T08:25:37;22.80;99.90
5588;DHT22;2816;49.778;9.986;2023-06-10T08:28:04;22.80;99.90
5588;DHT22;2816;49.778;9.986;2023-06-10T08:30:32;22.90;99.90
5588;DHT22;2816;49.778;9.986;2023-06-10T08:32:59;23.00;99.60
5588;DHT22;2816;49.778;9.986;2023-06-10T08:35:26;23.10;99.40
5588;DHT22;2816;49.778;9.986;2023-06-10T08:37:53;23.10;98.90
5588;DHT22;2816;49.778;9.986;2023-06-10T08:40:20;23.20;99.10
5588;DHT22;2816;49.778;9.986;2023-06-10T08:42:53;23.20;99.40
5588;DHT22;2816;49.778;9.986;2023-06-10T08:45:23;23.40;99.80
5588;DHT22;2816;49.778;9.986;2023-06-10T08:47:53;23.50;99.10
5588;DHT22;2816;49.778;9.986;2023-06-10T08:50:21;23.50;98.90
5588;DHT22;2816;49.778;9.986;2023-06-10T08:52:50;23.50;99.30
5588;DHT22;2816;49.778;9.986;2023-06-10T08:55:25;23.60;98.60
5588;DHT22;2816;49.778;9.986;2023-06-10T08:57:53;23.90;98.80
5588;DHT22;2816;49.778;9.986;2023-06-10T09:00:21;23.90;98.50
5588;DHT22;2816;49.778;9.986;2023-06-10T09:02:48;23.90;98.20
5588;DHT22;2816;49.778;9.986;2023-06-10T09:05:17;23.90;97.90
5588;DHT22;2816;49.778;9.986;2023-06-10T09:07:46;24.00;98.40
5588;DHT22;2816;49.778;9.986;2023-06-10T09:10:14;24.10;98.10
5588;DHT22;2816;49.778;9.986;2023-06-10T09:12:41;24.30;97.90
5588;DHT22;2816;49.778;9.986;2023-06-10T09:15:09;24.20;97.20
5588;DHT22;2816;49.778;9.986;2023-06-10T09:17:37;24.20;97.30
5588;DHT22;2816;49.778;9.986;2023-06-10T09:20:07;24.30;97.40
5588;DHT22;2816;49.778;9.986;2023-06-10T09:22:35;24.50;97.50
5588;DHT22;2816;49.778;9.986;2023-06-10T09:25:03;24.50;96.90
5588;DHT22;2816;49.778;9.986;2023-06-10T09:27:31;24.70;97.00
5588;DHT22;2816;49.778;9.986;2023-06-10T09:29:58;24.90;96.50
5588;DHT22;2816;49.778;9.986;2023-06-10T09:32:26;25.10;96.10
5588;DHT22;2816;49.778;9.986;2023-06-10T09:34:54;25.10;95.20
5588;DHT22;2816;49.778;9.986;2023-06-10T09:37:22;25.00;95.70
5588;DHT22;2816;49.778;9.986;2023-06-10T09:40:07;25.10;95.10
5588;DHT22;2816;49.778;9.986;2023-06-10T09:42:37;25.40;93.90
5588;DHT22;2816;49.778;9.986;2023-06-10T09:45:06;25.50;93.40
5588;DHT22;2816;49.778;9.986;2023-06-10T09:47:33;25.40;94.50
5588;DHT22;2816;49.778;9.986;2023-06-10T09:50:00;25.70;94.20
5588;DHT22;2816;49.778;9.986;2023-06-10T09:52:28;25.90;93.80
5588;DHT22;2816;49.778;9.986;2023-06-10T09:54:59;25.90;93.30
5588;DHT22;2816;49.778;9.986;2023-06-10T09:57:31;25.70;92.90
5588;DHT22;2816;49.778;9.986;2023-06-10T09:59:58;25.70;93.00
5588;DHT22;2816;49.778;9.986;2023-06-10T10:02:25;25.90;93.10
5588;DHT22;2816;49.778;9.986;2023-06-10T10:04:52;26.00;92.40
5588;DHT22;2816;49.778;9.986;2023-06-10T10:07:19;26.10;92.90
5588;DHT22;2816;49.778;9.986;2023-06-10T10:09:46;26.30;92.20
5588;DHT22;2816;49.778;9.986;2023-06-10T10:12:15;26.50;91.40
5588;DHT22;2816;49.778;9.986;2023-06-10T10:14:46;26.50;91.30
5588;DHT22;2816;49.778;9.986;2023-06-10T10:17:15;26.50;92.00
5588;DHT22;2816;49.778;9.986;2023-06-10T10:19:46;26.60;92.00
5588;DHT22;2816;49.778;9.986;2023-06-10T10:22:19;26.40;92.00
5588;DHT22;2816;49.778;9.986;2023-06-10T10:24:49;26.70;91.10
5588;DHT22;2816;49.778;9.986;2023-06-10T10:27:18;26.70;90.90
5588;DHT22;2816;49.778;9.986;2023-06-10T10:29:52;26.70;91.10
5588;DHT22;2816;49.778;9.986;2023-06-10T10:32:25;27.10;91.00
5588;DHT22;2816;49.778;9.986;2023-06-10T10:34:59;27.40;90.80
5588;DHT22;2816;49.778;9.986;2023-06-10T10:37:28;27.10;91.00
5588;DHT22;2816;49.778;9.986;2023-06-10T10:39:56;27.20;91.00
5588;DHT22;2816;49.778;9.986;2023-06-10T10:42:23;27.40;91.00
5588;DHT22;2816;49.778;9.986;2023-06-10T10:44:52;27.40;90.30
5588;DHT22;2816;49.778;9.986;2023-06-10T10:47:21;27.60;90.20
5588;DHT22;2816;49.778;9.986;2023-06-10T10:49:50;27.80;88.40
5588;DHT22;2816;49.778;9.986;2023-06-10T10:52:18;27.50;89.10
5588;DHT22;2816;49.778;9.986;2023-06-10T10:54:45;27.70;89.70
5588;DHT22;2816;49.778;9.986;2023-06-10T10:57:14;28.00;88.50
5588;DHT22;2816;49.778;9.986;2023-06-10T10:59:54;28.20;88.20
5588;DHT22;2816;49.778;9.986;2023-06-10T11:02:35;27.90;87.90
5588;DHT22;2816;49.778;9.986;2023-06-10T11:05:05;27.90;88.60
5588;DHT22;2816;49.778;9.986;2023-06-10T11:07:33;27.70;87.60
5588;DHT22;2816;49.778;9.986;2023-06-10T11:10:02;27.50;88.20
5588;DHT22;2816;49.778;9.986;2023-06-10T11:12:56;27.30;88.40
5588;DHT22;2816;49.778;9.986;2023-06-10T11:15:25;26.90;88.60
5588;DHT22;2816;49.778;9.986;2023-06-10T11:21:00;27.20;88.10
5588;DHT22;2816;49.778;9.986;2023-06-10T11:23:33;27.00;88.00
5588;DHT22;2816;49.778;9.986;2023-06-10T11:26:20;26.90;88.90
5588;DHT22;2816;49.778;9.986;2023-06-10T11:29:09;27.20;87.90
5588;DHT22;2816;49.778;9.986;2023-06-10T11:31:50;27.50;87.10
5588;DHT22;2816;49.778;9.986;2023-06-10T11:34:24;27.40;87.50
5588;DHT22;2816;49.778;9.986;2023-06-10T11:36:52;27.70;87.10
5588;DHT22;2816;49.778;9.986;2023-06-10T11:39:20;27.80;86.40
5588;DHT22;2816;49.778;9.986;2023-06-10T11:41:49;27.90;86.10
5588;DHT22;2816;49.778;9.986;2023-06-10T11:44:17;28.10;84.40
5588;DHT22;2816;49.778;9.986;2023-06-10T11:46:47;28.20;84.60
5588;DHT22;2816;49.778;9.986;2023-06-10T11:49:14;28.50;84.30
5588;DHT22;2816;49.778;9.986;2023-06-10T11:51:41;28.60;84.20
5588;DHT22;2816;49.778;9.986;2023-06-10T11:54:15;28.40;83.10
5588;DHT22;2816;49.778;9.986;2023-06-10T11:56:42;28.70;82.80
5588;DHT22;2816;49.778;9.986;2023-06-10T11:59:09;28.90;82.30
5588;DHT22;2816;49.778;9.986;2023-06-10T12:01:37;29.00;81.00
5588;DHT22;2816;49.778;9.986;2023-06-10T12:04:08;29.20;80.90
5588;DHT22;2816;49.778;9.986;2023-06-10T12:06:40;29.40;80.80
5588;DHT22;2816;49.778;9.986;2023-06-10T12:09:19;29.50;80.50
5588;DHT22;2816;49.778;9.986;2023-06-10T12:11:49;29.30;79.90
5588;DHT22;2816;49.778;9.986;2023-06-10T12:16:58;29.00;79.60
5588;DHT22;2816;49.778;9.986;2023-06-10T12:19:26;29.10;80.00
5588;DHT22;2816;49.778;9.986;2023-06-10T12:21:53;29.10;79.20
5588;DHT22;2816;49.778;9.986;2023-06-10T12:24:20;29.30;79.50
5588;DHT22;2816;49.778;9.986;2023-06-10T12:26:47;29.40;78.50
5588;DHT22;2816;49.778;9.986;2023-06-10T12:29:22;29.70;77.80
5588;DHT22;2816;49.778;9.986;2023-06-10T12:31:54;29.90;77.30
5588;DHT22;2816;49.778;9.986;2023-06-10T12:34:30;29.70;76.20
5588;DHT22;2816;49.778;9.986;2023-06-10T12:36:57;29.50;77.90
5588;DHT22;2816;49.778;9.986;2023-06-10T12:39:24;29.30;78.90
5588;DHT22;2816;49.778;9.986;2023-06-10T12:41:51;29.60;78.40
5588;DHT22;2816;49.778;9.986;2023-06-10T12:44:27;29.70;78.20
5588;DHT22;2816;49.778;9.986;2023-06-10T12:46:54;29.60;77.00
5588;DHT22;2816;49.778;9.986;2023-06-10T12:49:21;30.00;76.70
5588;DHT22;2816;49.778;9.986;2023-06-10T12:51:49;29.90;77.50
5588;DHT22;2816;49.778;9.986;2023-06-10T12:54:16;29.90;77.30
5588;DHT22;2816;49.778;9.986;2023-06-10T12:56:43;29.50;77.50
5588;DHT22;2816;49.778;9.986;2023-06-10T12:59:10;29.30;77.70
5588;DHT22;2816;49.778;9.986;2023-06-10T13:01:37;29.30;77.60
5588;DHT22;2816;49.778;9.986;2023-06-10T13:04:05;29.30;78.10
5588;DHT22;2816;49.778;9.986;2023-06-10T13:06:33;29.40;78.00
5588;DHT22;2816;49.778;9.986;2023-06-10T13:09:05;29.30;78.00
5588;DHT22;2816;49.778;9.986;2023-06-10T13:11:33;28.80;78.60
5588;DHT22;2816;49.778;9.986;2023-06-10T13:14:00;28.70;79.90
5588;DHT22;2816;49.778;9.986;2023-06-10T13:16:28;28.70;79.50
5588;DHT22;2816;49.778;9.986;2023-06-10T13:18:55;28.60;79.60
5588;DHT22;2816;49.778;9.986;2023-06-10T13:21:23;28.40;79.90
5588;DHT22;2816;49.778;9.986;2023-06-10T13:23:50;28.40;79.90
5588;DHT22;2816;49.778;9.986;2023-06-10T13:26:18;28.30;80.90
5588;DHT22;2816;49.778;9.986;2023-06-10T13:28:45;28.50;81.20
5588;DHT22;2816;49.778;9.986;2023-06-10T13:31:12;28.80;80.80
5588;DHT22;2816;49.778;9.986;2023-06-10T13:33:40;29.00;80.90
5588;DHT22;2816;49.778;9.986;2023-06-10T13:36:09;29.00;80.30
5588;DHT22;2816;49.778;9.986;2023-06-10T13:38:36;29.10;78.20
5588;DHT22;2816;49.778;9.986;2023-06-10T13:41:03;29.20;78.50
5588;DHT22;2816;49.778;9.986;2023-06-10T13:43:31;29.50;79.50
5588;DHT22;2816;49.778;9.986;2023-06-10T13:45:59;29.70;79.00
5588;DHT22;2816;49.778;9.986;2023-06-10T13:48:26;29.70;79.20
5588;DHT22;2816;49.778;9.986;2023-06-10T13:50:52;30.10;78.20
5588;DHT22;2816;49.778;9.986;2023-06-10T13:53:19;30.00;77.80
5588;DHT22;2816;49.778;9.986;2023-06-10T13:55:46;30.10;77.80
5588;DHT22;2816;49.778;9.986;2023-06-10T13:58:13;30.20;77.60
5588;DHT22;2816;49.778;9.986;2023-06-10T14:00:41;30.30;77.10
5588;DHT22;2816;49.778;9.986;2023-06-10T14:03:09;30.40;77.40
5588;DHT22;2816;49.778;9.986;2023-06-10T14:05:36;30.50;77.20
5588;DHT22;2816;49.778;9.986;2023-06-10T14:08:03;30.50;76.80
5588;DHT22;2816;49.778;9.986;2023-06-10T14:10:30;30.50;76.20
5588;DHT22;2816;49.778;9.986;2023-06-10T14:12:56;30.40;76.60
5588;DHT22;2816;49.778;9.986;2023-06-10T14:15:23;30.50;76.30
5588;DHT22;2816;49.778;9.986;2023-06-10T14:17:52;30.10;76.80
5588;DHT22;2816;49.778;9.986;2023-06-10T14:20:19;30.20;75.80
5588;DHT22;2816;49.778;9.986;2023-06-10T14:22:45;30.20;76.70
5588;DHT22;2816;49.778;9.986;2023-06-10T14:25:12;30.40;75.70
5588;DHT22;2816;49.778;9.986;2023-06-10T14:27:39;30.30;75.70
5588;DHT22;2816;49.778;9.986;2023-06-10T14:30:07;30.30;75.50
5588;DHT22;2816;49.778;9.986;2023-06-10T14:32:34;30.30;76.00
5588;DHT22;2816;49.778;9.986;2023-06-10T14:35:03;30.60;75.70
5588;DHT22;2816;49.778;9.986;2023-06-10T14:37:30;30.50;75.90
5588;DHT22;2816;49.778;9.986;2023-06-10T14:39:57;30.50;75.50
5588;DHT22;2816;49.778;9.986;2023-06-10T14:42:24;30.50;76.70
5588;DHT22;2816;49.778;9.986;2023-06-10T14:44:51;30.30;75.70
5588;DHT22;2816;49.778;9.986;2023-06-10T14:47:17;30.20;75.90
5588;DHT22;2816;49.778;9.986;2023-06-10T14:49:44;30.00;77.20
5588;DHT22;2816;49.778;9.986;2023-06-10T14:52:13;30.00;76.10
5588;DHT22;2816;49.778;9.986;2023-06-10T14:54:40;30.20;74.90
5588;DHT22;2816;49.778;9.986;2023-06-10T14:57:07;30.00;74.70
5588;DHT22;2816;49.778;9.986;2023-06-10T14:59:34;30.10;75.90
5588;DHT22;2816;49.778;9.986;2023-06-10T15:02:01;30.30;75.60
5588;DHT22;2816;49.778;9.986;2023-06-10T15:04:28;30.20;76.40
5588;DHT22;2816;49.778;9.986;2023-06-10T15:06:55;29.70;78.90
5588;DHT22;2816;49.778;9.986;2023-06-10T15:09:23;29.10;80.20
5588;DHT22;2816;49.778;9.986;2023-06-10T15:11:50;28.80;81.30
5588;DHT22;2816;49.778;9.986;2023-06-10T15:14:17;28.30;85.70
5588;DHT22;2816;49.778;9.986;2023-06-10T15:16:44;27.40;89.30
5588;DHT22;2816;49.778;9.986;2023-06-10T15:19:11;27.10;92.40
5588;DHT22;2816;49.778;9.986;2023-06-10T15:21:38;26.50;92.50
5588;DHT22;2816;49.778;9.986;2023-06-10T15:24:05;26.30;91.90
5588;DHT22;2816;49.778;9.986;2023-06-10T15:26:34;26.40;91.50
5588;DHT22;2816;49.778;9.986;2023-06-10T15:29:01;26.70;90.80
5588;DHT22;2816;49.778;9.986;2023-06-10T15:31:30;26.90;90.20
5588;DHT22;2816;49.778;9.986;2023-06-10T15:33:58;27.10;90.70
5588;DHT22;2816;49.778;9.986;2023-06-10T15:36:25;27.00;90.80
5588;DHT22;2816;49.778;9.986;2023-06-10T15:38:52;27.20;89.90
5588;DHT22;2816;49.778;9.986;2023-06-10T15:41:19;27.30;89.30
5588;DHT22;2816;49.778;9.986;2023-06-10T15:43:47;27.30;87.90
5588;DHT22;2816;49.778;9.986;2023-06-10T15:46:14;27.50;87.30
5588;DHT22;2816;49.778;9.986;2023-06-10T15:48:41;27.60;86.90
5588;DHT22;2816;49.778;9.986;2023-06-10T15:51:08;27.60;87.20
5588;DHT22;2816;49.778;9.986;2023-06-10T15:53:35;27.80;87.00
5588;DHT22;2816;49.778;9.986;2023-06-10T15:56:02;28.00;87.40
5588;DHT22;2816;49.778;9.986;2023-06-10T15:58:29;27.90;88.10
5588;DHT22;2816;49.778;9.986;2023-06-10T16:00:58;27.80;89.20
5588;DHT22;2816;49.778;9.986;2023-06-10T16:03:25;27.80;90.30
5588;DHT22;2816;49.778;9.986;2023-06-10T16:05:52;27.80;90.90
5588;DHT22;2816;49.778;9.986;2023-06-10T16:08:19;27.80;91.20
5588;DHT22;2816;49.778;9.986;2023-06-10T16:10:46;27.60;91.60
5588;DHT22;2816;49.778;9.986;2023-06-10T16:13:13;27.50;92.40
5588;DHT22;2816;49.778;9.986;2023-06-10T16:15:40;27.50;92.60